Time;durP1;ratioP1;P1;durP2;ratioP2;P2;SDS_P1;SDS_P2;PMS_P1;PMS_P2;Temp;Humidity;BMP_temperature;BMP_pressure;BME280_temperature;BME280_humidity;BME280_pressure;Samples;Min_cycle;Max_cycle;Signal;HPM_P1;HPM_P2
2022/05/22 00:00:44;;;;;;;10.20;6.03;;;18.10;92.30;;;;;;6073455;23;20420;-86
2022/05/22 00:03:29;;;;;;;8.70;5.73;;;18.10;92.50;;;;;;6079626;23;20409;-88
2022/05/22 00:06:08;;;;;;;7.43;5.70;;;18.10;92.80;;;;;;6086932;23;20465;-88
2022/05/22 00:11:55;;;;;;;7.40;6.17;;;17.90;93.60;;;;;;6083319;23;20480;-86
2022/05/22 00:14:25;;;;;;;5.87;5.40;;;17.70;93.90;;;;;;6077240;23;20736;-86
2022/05/22 00:17:25;;;;;;;8.23;5.83;;;17.80;94.10;;;;;;6075952;23;20469;-86
2022/05/22 00:20:32;;;;;;;9.63;5.50;;;17.60;94.20;;;;;;6076707;23;20425;-86
2022/05/22 00:23:16;;;;;;;6.13;5.53;;;17.40;94.50;;;;;;6080853;23;20425;-87
2022/05/22 00:25:59;;;;;;;5.83;5.37;;;17.30;94.90;;;;;;6076797;23;20459;-86
2022/05/22 00:28:35;;;;;;;8.87;6.70;;;17.40;94.90;;;;;;6077643;23;20421;-86
2022/05/22 00:31:18;;;;;;;7.83;6.07;;;17.60;94.60;;;;;;6074305;23;20409;-86
2022/05/22 00:34:02;;;;;;;7.63;5.80;;;17.60;94.50;;;;;;6076877;23;20406;-87
2022/05/22 00:36:47;;;;;;;17.57;8.00;;;17.50;94.70;;;;;;6070681;23;20437;-88
2022/05/22 00:39:43;;;;;;;8.10;6.30;;;17.50;95.00;;;;;;6072745;23;20410;-86
2022/05/22 00:42:37;;;;;;;7.70;6.90;;;17.40;94.90;;;;;;6071328;23;20408;-87
2022/05/22 00:45:19;;;;;;;10.60;6.80;;;17.30;95.20;;;;;;6066800;23;20449;-85
2022/05/22 00:47:57;;;;;;;11.10;6.93;;;17.20;95.20;;;;;;6065572;23;20818;-84
2022/05/22 00:50:38;;;;;;;8.47;6.07;;;17.20;95.60;;;;;;6067299;23;20485;-83
2022/05/22 00:53:29;;;;;;;9.00;6.50;;;17.00;95.50;;;;;;6065255;23;20425;-86
2022/05/22 00:56:33;;;;;;;6.57;5.87;;;16.90;96.10;;;;;;6065301;23;20505;-86
2022/05/22 00:59:05;;;;;;;6.53;5.90;;;16.90;96.40;;;;;;6066284;23;20425;-87
2022/05/22 01:01:57;;;;;;;6.80;6.07;;;16.90;96.60;;;;;;6066613;23;20421;-87
2022/05/22 01:04:37;;;;;;;9.10;5.67;;;16.90;96.70;;;;;;6049116;23;20484;-86
2022/05/22 01:07:39;;;;;;;8.67;5.90;;;16.90;96.40;;;;;;6069676;23;20540;-85
2022/05/22 01:10:33;;;;;;;6.67;6.00;;;16.90;96.10;;;;;;6059783;23;20425;-85
2022/05/22 01:13:45;;;;;;;9.37;6.23;;;16.90;96.00;;;;;;6011561;23;20491;-88
2022/05/22 01:16:25;;;;;;;6.97;6.27;;;16.90;96.10;;;;;;6078656;23;20489;-88
2022/05/22 01:19:17;;;;;;;7.23;5.40;;;16.70;96.40;;;;;;6076076;23;20452;-86
2022/05/22 01:22:28;;;;;;;;;;;;;;;;;;;;;
2022/05/22 01:28:25;;;;;;;8.93;4.97;;;16.60;96.80;;;;;;6099788;23;20421;-85
2022/05/22 01:31:13;;;;;;;9.30;6.37;;;16.70;96.70;;;;;;6060279;23;20692;-86
2022/05/22 01:33:51;;;;;;;9.70;6.10;;;16.80;96.70;;;;;;6071150;23;20423;-85
2022/05/22 01:36:34;;;;;;;6.27;5.70;;;16.70;97.00;;;;;;6070738;23;20567;-86
2022/05/22 01:39:12;;;;;;;6.20;5.40;;;16.50;97.60;;;;;;6094725;23;20416;-85
2022/05/22 01:42:08;;;;;;;8.93;6.50;;;16.80;97.50;;;;;;6099474;23;20802;-86
2022/05/22 01:44:44;;;;;;;8.10;6.17;;;16.70;97.60;;;;;;6098409;23;20419;-86
2022/05/22 01:47:43;;;;;;;11.30;6.40;;;16.80;97.40;;;;;;6103236;23;20487;-86
2022/05/22 01:50:17;;;;;;;7.93;6.37;;;16.60;97.60;;;;;;6075761;23;20426;-85
2022/05/22 01:52:54;;;;;;;6.80;6.13;;;16.70;97.90;;;;;;6098898;23;20393;-86
2022/05/22 01:55:31;;;;;;;8.10;6.40;;;16.50;97.90;;;;;;6100039;23;21331;-84
2022/05/22 02:01:39;;;;;;;7.23;6.10;;;16.40;98.60;;;;;;6096620;23;20428;-84
2022/05/22 02:05:04;;;;;;;;;;;;;;;;;;;;;
2022/05/22 02:08:24;;;;;;;11.27;6.63;;;16.60;98.90;;;;;;6108066;23;20463;-88
2022/05/22 02:11:23;;;;;;;8.43;6.47;;;16.40;99.00;;;;;;6086601;23;20408;-86
2022/05/22 02:14:20;;;;;;;9.53;5.83;;;16.40;98.90;;;;;;6086081;23;20440;-85
2022/05/22 02:16:58;;;;;;;6.07;4.87;;;16.40;99.10;;;;;;6107359;23;20680;-85
2022/05/22 02:20:19;;;;;;;8.50;6.50;;;16.50;99.00;;;;;;6074222;23;20420;-85
2022/05/22 02:23:31;;;;;;;11.83;6.37;;;16.60;98.70;;;;;;6072904;23;20439;-86
2022/05/22 02:26:53;;;;;;;8.20;6.23;;;16.50;98.60;;;;;;6087488;23;20872;-86
2022/05/22 02:30:08;;;;;;;6.70;6.00;;;16.60;98.70;;;;;;6095434;23;20429;-86
2022/05/22 02:33:02;;;;;;;6.73;6.03;;;16.50;98.80;;;;;;5982877;24;20396;-87
2022/05/22 02:36:08;;;;;;;5.87;5.47;;;16.50;98.80;;;;;;5975030;24;20460;-84
2022/05/22 02:39:12;;;;;;;8.93;5.87;;;16.30;98.70;;;;;;5980408;24;20424;-85
2022/05/22 02:45:34;;;;;;;8.50;5.77;;;16.30;99.20;;;;;;5929412;24;20422;-84
2022/05/22 02:48:08;;;;;;;7.07;5.80;;;16.10;99.30;;;;;;5932555;24;20425;-86
2022/05/22 02:50:54;;;;;;;7.53;6.77;;;16.10;99.40;;;;;;5924673;24;20471;-85
2022/05/22 02:53:39;;;;;;;6.17;5.53;;;16.00;99.10;;;;;;5923450;24;20838;-87
2022/05/22 02:56:24;;;;;;;7.17;6.10;;;15.80;99.30;;;;;;5922948;24;20500;-86
2022/05/22 02:59:13;;;;;;;10.20;6.30;;;15.80;99.50;;;;;;5921996;24;20410;-85
2022/05/22 03:01:49;;;;;;;6.43;5.83;;;15.60;99.30;;;;;;5922387;24;20494;-84
2022/05/22 03:04:23;;;;;;;7.20;6.50;;;15.60;99.60;;;;;;5922469;24;20498;-85
2022/05/22 03:06:53;;;;;;;12.27;6.23;;;15.50;99.90;;;;;;5921535;24;20489;-86
2022/05/22 03:09:35;;;;;;;;;;;;;;;;;;;;;
2022/05/22 03:12:21;;;;;;;6.47;5.87;;;15.40;99.90;;;;;;6004066;23;20479;-86
2022/05/22 03:14:57;;;;;;;8.37;5.50;;;15.40;99.90;;;;;;5980302;23;20527;-87
2022/05/22 03:17:31;;;;;;;9.27;6.27;;;15.30;99.90;;;;;;6007542;23;20470;-86
2022/05/22 03:20:40;;;;;;;11.07;5.53;;;15.30;99.90;;;;;;6047820;23;20460;-85
2022/05/22 03:23:25;;;;;;;7.63;6.00;;;15.60;99.90;;;;;;6094319;23;20405;-85
2022/05/22 03:26:00;;;;;;;8.33;6.17;;;15.50;99.90;;;;;;6092110;23;20448;-87
2022/05/22 03:28:41;;;;;;;6.50;5.10;;;15.60;99.90;;;;;;6089821;23;20420;-84
2022/05/22 03:31:10;;;;;;;7.87;6.37;;;15.70;99.90;;;;;;6096312;23;20428;-83
2022/05/22 03:33:47;;;;;;;8.00;6.20;;;15.70;99.90;;;;;;6092521;23;20931;-86
2022/05/22 03:36:29;;;;;;;8.23;6.17;;;15.60;99.80;;;;;;6093713;23;20436;-84
2022/05/22 03:39:14;;;;;;;6.70;5.70;;;15.60;99.90;;;;;;6096492;23;20413;-86
2022/05/22 03:41:43;;;;;;;6.40;5.80;;;15.60;99.90;;;;;;6105570;23;20455;-85
2022/05/22 03:44:23;;;;;;;6.63;6.03;;;15.50;99.90;;;;;;6107887;23;20435;-85
2022/05/22 03:47:13;;;;;;;8.40;5.80;;;15.60;99.90;;;;;;6097195;23;20448;-84
2022/05/22 03:49:54;;;;;;;6.13;5.53;;;15.50;99.90;;;;;;6100490;23;21005;-84
2022/05/22 03:52:30;;;;;;;9.83;6.33;;;15.50;99.90;;;;;;6096157;23;20421;-84
2022/05/22 03:54:57;;;;;;;8.77;6.00;;;15.30;99.90;;;;;;6096562;23;20419;-83
2022/05/22 03:57:25;;;;;;;7.53;6.00;;;15.40;99.90;;;;;;6095797;23;20911;-87
2022/05/22 03:59:59;;;;;;;6.60;5.97;;;15.30;99.90;;;;;;6071658;23;20416;-82
2022/05/22 04:02:29;;;;;;;7.07;6.37;;;15.30;99.90;;;;;;6073051;23;20434;-83
2022/05/22 04:04:57;;;;;;;6.63;5.60;;;15.20;99.90;;;;;;6098931;23;20420;-83
2022/05/22 04:07:48;;;;;;;7.47;6.33;;;15.20;99.90;;;;;;6099681;23;20522;-84
2022/05/22 04:10:19;;;;;;;8.80;5.87;;;15.30;99.90;;;;;;6109439;23;20424;-86
2022/05/22 04:12:54;;;;;;;6.17;5.63;;;15.20;99.90;;;;;;6111012;23;20465;-86
2022/05/22 04:15:29;;;;;;;6.93;5.40;;;15.20;99.90;;;;;;6112545;23;20448;-84
2022/05/22 04:17:58;;;;;;;6.03;5.43;;;15.20;99.90;;;;;;6108981;23;20808;-85
2022/05/22 04:20:28;;;;;;;8.13;6.00;;;15.50;99.90;;;;;;6084461;23;20440;-85
2022/05/22 04:25:57;;;;;;;8.47;6.30;;;15.10;99.90;;;;;;6107886;23;20447;-85
2022/05/22 04:28:44;;;;;;;6.43;5.77;;;15.20;99.90;;;;;;6102417;23;20408;-85
2022/05/22 04:31:11;;;;;;;6.10;5.50;;;15.10;99.90;;;;;;6100490;23;20417;-84
2022/05/22 04:33:44;;;;;;;5.80;5.23;;;15.00;99.90;;;;;;6102763;23;20763;-82
2022/05/22 04:36:17;;;;;;;6.57;5.90;;;15.20;99.90;;;;;;6108503;23;20438;-84
2022/05/22 04:38:46;;;;;;;6.63;6.03;;;15.20;99.90;;;;;;6098190;23;20416;-85
2022/05/22 04:41:34;;;;;;;8.27;5.53;;;15.20;99.90;;;;;;6074426;23;20467;-87
2022/05/22 04:44:04;;;;;;;8.30;6.17;;;15.10;99.90;;;;;;6074327;23;20432;-86
2022/05/22 04:46:39;;;;;;;6.40;5.80;;;15.10;99.90;;;;;;6072329;23;20448;-84
2022/05/22 04:49:06;;;;;;;6.93;5.97;;;15.20;99.90;;;;;;6072942;23;20417;-84
2022/05/22 04:51:38;;;;;;;9.60;6.57;;;15.20;99.90;;;;;;6096925;23;20456;-85
2022/05/22 04:54:14;;;;;;;12.33;6.53;;;15.50;99.90;;;;;;6074566;23;20519;-84
2022/05/22 04:57:12;;;;;;;;;;;;;;;;;;;;;
2022/05/22 04:59:59;;;;;;;10.53;6.73;;;15.20;99.90;;;;;;6098484;23;20402;-85
2022/05/22 05:02:49;;;;;;;7.33;5.57;;;15.20;99.90;;;;;;6101202;23;20411;-86
2022/05/22 05:05:38;;;;;;;6.10;5.50;;;15.40;99.90;;;;;;6111744;23;20546;-88
2022/05/22 05:08:34;;;;;;;6.30;5.70;;;15.60;99.90;;;;;;6112296;23;20400;-87
2022/05/22 05:11:18;;;;;;;7.83;6.40;;;15.70;99.40;;;;;;6113697;23;20415;-85
2022/05/22 05:14:05;;;;;;;8.43;6.13;;;15.60;99.30;;;;;;6111693;23;20404;-88
2022/05/22 05:16:39;;;;;;;10.30;6.73;;;15.50;99.70;;;;;;6111845;23;20452;-89
2022/05/22 05:19:30;;;;;;;7.20;6.50;;;15.60;99.80;;;;;;6103254;23;20397;-88
2022/05/22 05:22:03;;;;;;;10.93;6.60;;;15.60;99.80;;;;;;6101972;23;20407;-87
2022/05/22 05:25:19;;;;;;;;;;;;;;;;;;;;;
2022/05/22 05:28:14;;;;;;;7.37;6.50;;;15.50;99.90;;;;;;6104548;23;20449;-84
2022/05/22 05:31:02;;;;;;;8.23;6.50;;;15.50;99.90;;;;;;6094656;23;20416;-84
2022/05/22 05:33:39;;;;;;;9.40;7.13;;;15.70;99.60;;;;;;6075588;23;20419;-87
2022/05/22 05:36:14;;;;;;;10.80;7.03;;;15.60;99.00;;;;;;6058969;23;20440;-86
2022/05/22 05:38:59;;;;;;;;;;;;;;;;;;;;;
2022/05/22 05:41:29;;;;;;;8.40;6.60;;;15.60;99.30;;;;;;6097812;23;20496;-87
2022/05/22 05:44:06;;;;;;;7.93;6.80;;;15.70;99.10;;;;;;6094889;23;20523;-87
2022/05/22 05:47:00;;;;;;;6.93;6.23;;;15.80;98.90;;;;;;6097036;23;20543;-88
2022/05/22 05:49:53;;;;;;;8.10;5.90;;;15.70;98.70;;;;;;6112598;23;20408;-89
2022/05/22 05:52:34;;;;;;;8.10;6.23;;;15.70;98.70;;;;;;6116290;23;20594;-88
2022/05/22 05:56:09;;;;;;;7.10;6.40;;;15.90;98.60;;;;;;6112379;23;20967;-84
2022/05/22 05:59:02;;;;;;;6.80;6.20;;;15.80;98.70;;;;;;6095494;23;20417;-85
2022/05/22 06:01:42;;;;;;;9.23;8.50;;;16.00;98.20;;;;;;6094166;23;20535;-85
2022/05/22 06:04:20;;;;;;;11.80;7.10;;;16.10;98.00;;;;;;6095797;23;21032;-85
2022/05/22 06:06:52;;;;;;;7.43;6.50;;;16.00;98.10;;;;;;6095022;23;20515;-86
2022/05/22 06:09:48;;;;;;;7.10;6.40;;;16.00;98.10;;;;;;6093527;23;20460;-87
2022/05/22 06:12:36;;;;;;;8.73;6.10;;;15.90;98.20;;;;;;6099472;23;20413;-85
2022/05/22 06:21:38;;;;;;;7.13;6.43;;;16.50;97.10;;;;;;6089580;23;20412;-85
2022/05/22 06:24:12;;;;;;;9.60;6.20;;;16.70;96.50;;;;;;6099178;23;20476;-86
2022/05/22 06:27:28;;;;;;;7.63;6.10;;;16.80;96.20;;;;;;6104694;23;20500;-86
2022/05/22 06:30:32;;;;;;;7.13;6.43;;;16.70;96.40;;;;;;6074875;23;20495;-87
2022/05/22 06:33:25;;;;;;;;;;;;;;;;;;;;;
2022/05/22 06:36:24;;;;;;;7.60;6.20;;;16.90;96.50;;;;;;6107449;23;20761;-85
2022/05/22 06:42:38;;;;;;;7.63;6.40;;;17.20;95.90;;;;;;6100451;23;20404;-88
2022/05/22 06:45:59;;;;;;;8.50;5.53;;;17.40;96.00;;;;;;6068654;23;20411;-85
2022/05/22 06:48:45;;;;;;;7.00;6.30;;;17.60;94.80;;;;;;6094199;23;20436;-85
2022/05/22 06:51:37;;;;;;;6.70;5.57;;;17.50;94.90;;;;;;6099618;23;20472;-87
2022/05/22 06:54:42;;;;;;;12.73;5.50;;;17.60;95.00;;;;;;6074265;23;20415;-86
2022/05/22 06:57:42;;;;;;;6.37;5.63;;;17.80;94.50;;;;;;6094646;23;20424;-85
2022/05/22 07:00:28;;;;;;;;;;;;;;;;;;;;;
2022/05/22 07:03:22;;;;;;;7.77;5.50;;;18.20;93.40;;;;;;6098463;23;20419;-86
2022/05/22 07:06:49;;;;;;;7.60;5.70;;;18.20;93.40;;;;;;6104038;23;20556;-87
2022/05/22 07:10:13;;;;;;;5.20;4.67;;;18.30;93.00;;;;;;6071202;23;20415;-87
2022/05/22 07:12:44;;;;;;;6.93;4.60;;;18.10;92.80;;;;;;5949317;23;20479;-86
2022/05/22 07:19:27;;;;;;;5.13;4.53;;;18.10;92.60;;;;;;6087757;23;20612;-86
2022/05/22 07:22:39;;;;;;;5.10;4.53;;;18.10;92.50;;;;;;6071479;23;20404;-85
2022/05/22 07:25:16;;;;;;;6.97;6.33;;;18.40;92.30;;;;;;6063373;23;20467;-88
2022/05/22 07:27:52;;;;;;;5.67;4.67;;;18.60;91.80;;;;;;6071171;23;20471;-85
2022/05/22 07:33:58;;;;;;;5.83;4.50;;;18.90;90.50;;;;;;6095417;23;20399;-85
2022/05/22 07:39:59;;;;;;;6.20;4.93;;;19.10;91.10;;;;;;6103792;23;20407;-85
2022/05/22 07:42:45;;;;;;;5.73;4.60;;;19.00;91.40;;;;;;6096265;23;20444;-84
2022/05/22 07:45:15;;;;;;;5.33;4.83;;;18.90;91.40;;;;;;6093601;23;20393;-84
2022/05/22 07:47:51;;;;;;;7.53;4.70;;;19.30;90.70;;;;;;6091619;23;20456;-85
2022/05/22 07:50:24;;;;;;;7.37;5.07;;;19.30;90.40;;;;;;6094235;23;21104;-89
2022/05/22 07:52:54;;;;;;;4.77;4.30;;;19.50;89.80;;;;;;6093498;23;20407;-86
2022/05/22 07:55:26;;;;;;;6.00;4.80;;;19.60;90.30;;;;;;6103593;23;20408;-88
2022/05/22 07:57:56;;;;;;;5.17;4.43;;;20.00;88.80;;;;;;6097286;23;20447;-87
2022/05/22 08:00:56;;;;;;;5.73;5.13;;;20.20;88.20;;;;;;6110358;23;21015;-88
2022/05/22 08:03:37;;;;;;;7.30;4.77;;;20.20;86.60;;;;;;6098328;23;20748;-87
2022/05/22 08:06:13;;;;;;;5.93;4.40;;;20.50;86.50;;;;;;6072600;23;20492;-88
2022/05/22 08:08:48;;;;;;;7.20;5.43;;;20.70;86.10;;;;;;6095065;23;20534;-86
2022/05/22 08:11:49;;;;;;;5.67;4.03;;;21.00;82.50;;;;;;6077015;23;20416;-86
2022/05/22 08:17:38;;;;;;;6.70;4.33;;;21.30;79.70;;;;;;6096905;23;20440;-86
2022/05/22 08:20:38;;;;;;;;;;;;;;;;;;;;;
2022/05/22 08:23:59;;;;;;;;;;;;;;;;;;;;;
2022/05/22 08:27:01;;;;;;;5.20;4.07;;;22.10;74.70;;;;;;6105011;23;20471;-88
2022/05/22 08:29:38;;;;;;;4.43;4.00;;;22.60;72.20;;;;;;6085035;23;20490;-85
2022/05/22 08:32:55;;;;;;;6.13;4.60;;;22.40;71.70;;;;;;6086935;23;20412;-85
2022/05/22 08:35:55;;;;;;;5.53;4.40;;;23.10;69.50;;;;;;6080590;23;20440;-85
2022/05/22 08:39:11;;;;;;;4.20;3.80;;;23.20;70.10;;;;;;6082911;23;20431;-88
2022/05/22 08:48:44;;;;;;;6.00;3.90;;;25.20;61.50;;;;;;6105079;23;20448;-86
2022/05/22 08:51:33;;;;;;;8.10;3.50;;;25.70;58.60;;;;;;6101466;23;20892;-83
2022/05/22 08:59:56;;;;;;;8.43;4.07;;;27.90;53.00;;;;;;6087998;23;20961;-86
2022/05/22 09:02:34;;;;;;;9.97;3.50;;;29.40;50.60;;;;;;6102545;23;20435;-85
2022/05/22 09:05:28;;;;;;;7.30;4.37;;;29.70;49.30;;;;;;6090697;23;20416;-88
2022/05/22 09:08:29;;;;;;;5.73;4.50;;;29.90;47.40;;;;;;6088662;23;20515;-85
2022/05/22 09:11:13;;;;;;;5.20;3.80;;;29.50;47.30;;;;;;6091618;23;20467;-88
2022/05/22 09:14:51;;;;;;;;;;;;;;;;;;;;;
2022/05/22 09:18:26;;;;;;;4.37;3.87;;;29.00;47.60;;;;;;6103518;23;20531;-86
2022/05/22 09:22:23;;;;;;;4.53;3.90;;;29.40;47.10;;;;;;6077005;23;20427;-84
2022/05/22 09:25:36;;;;;;;5.07;4.57;;;29.70;45.90;;;;;;6009085;23;20412;-84
2022/05/22 09:29:02;;;;;;;6.90;3.90;;;30.30;44.70;;;;;;6071338;23;20448;-83
2022/05/22 09:32:15;;;;;;;4.97;4.47;;;29.90;44.70;;;;;;6087693;23;20429;-83
2022/05/22 09:35:22;;;;;;;7.00;4.20;;;30.30;43.90;;;;;;6062913;23;20392;-87
2022/05/22 09:38:44;;;;;;;6.00;5.07;;;29.10;45.20;;;;;;6076227;23;20456;-87
2022/05/22 09:41:47;;;;;;;9.27;5.07;;;27.40;48.40;;;;;;6097647;23;20798;-85
2022/05/22 09:44:23;;;;;;;6.73;4.60;;;27.60;48.10;;;;;;6071007;23;20575;-86
2022/05/22 09:47:55;;;;;;;8.77;5.20;;;27.60;48.30;;;;;;6080600;23;20448;-88
2022/05/22 09:51:24;;;;;;;7.10;4.77;;;28.40;46.50;;;;;;6094978;23;20787;-88
2022/05/22 09:55:02;;;;;;;;;;;;;;;;;;;;;
2022/05/22 09:58:00;;;;;;;4.83;4.30;;;28.20;46.00;;;;;;6105033;23;20436;-89
2022/05/22 10:01:10;;;;;;;7.70;5.33;;;27.60;47.70;;;;;;6083715;23;20687;-87
2022/05/22 10:04:56;;;;;;;;;;;;;;;;;;;;;
2022/05/22 10:07:39;;;;;;;7.87;5.30;;;27.20;47.30;;;;;;6114882;23;20455;-87
2022/05/22 10:15:12;;;;;;;6.17;5.20;;;28.30;45.70;;;;;;6094863;23;20551;-85
2022/05/22 10:18:37;;;;;;;5.80;4.90;;;29.00;44.20;;;;;;6075620;23;20440;-85
2022/05/22 10:21:24;;;;;;;6.67;5.60;;;28.80;44.30;;;;;;6012674;23;20397;-84
2022/05/22 10:24:33;;;;;;;4.93;4.43;;;28.90;43.80;;;;;;6058556;23;20916;-83
2022/05/22 10:27:36;;;;;;;4.90;4.37;;;29.40;43.50;;;;;;6067147;23;20487;-88
2022/05/22 10:30:42;;;;;;;5.40;4.40;;;29.90;42.80;;;;;;6067433;23;20409;-88
2022/05/22 10:34:04;;;;;;;5.63;4.80;;;29.90;42.50;;;;;;6077342;23;20415;-85
2022/05/22 10:36:52;;;;;;;5.37;4.90;;;28.60;44.20;;;;;;6068001;23;20753;-86
2022/05/22 10:39:28;;;;;;;6.67;5.97;;;27.40;46.60;;;;;;6067980;23;20456;-85
2022/05/22 10:45:21;;;;;;;6.43;5.00;;;25.80;49.00;;;;;;6093535;23;20518;-84
2022/05/22 10:48:19;;;;;;;7.37;5.57;;;25.40;49.60;;;;;;6069469;23;20433;-86
2022/05/22 10:52:17;;;;;;;6.83;4.73;;;26.00;49.40;;;;;;6073737;23;20447;-86
2022/05/22 10:55:55;;;;;;;6.10;5.00;;;26.60;48.20;;;;;;5974342;23;20431;-85
2022/05/22 10:59:13;;;;;;;4.80;4.40;;;28.20;44.90;;;;;;6007382;23;20416;-88
2022/05/22 11:02:10;;;;;;;6.17;4.43;;;28.60;44.30;;;;;;6070147;23;20455;-88
2022/05/22 11:08:04;;;;;;;5.73;4.70;;;29.20;42.70;;;;;;6124832;23;20510;-87
2022/05/22 11:10:47;;;;;;;4.67;4.27;;;29.40;42.40;;;;;;6081845;23;20921;-87
2022/05/22 11:13:58;;;;;;;6.77;4.70;;;29.00;42.10;;;;;;6099898;23;21007;-86
2022/05/22 11:16:55;;;;;;;5.30;4.67;;;29.20;42.10;;;;;;6094853;23;20400;-86
2022/05/22 11:19:46;;;;;;;4.70;4.30;;;28.50;42.90;;;;;;6100915;23;20424;-88
2022/05/22 11:23:09;;;;;;;5.37;4.20;;;29.00;43.20;;;;;;6125259;23;20714;-88
2022/05/22 11:26:25;;;;;;;4.20;3.80;;;30.30;41.00;;;;;;6117783;23;20464;-91
2022/05/22 11:30:19;;;;;;;7.60;4.50;;;29.70;41.50;;;;;;6141042;23;20713;-89
2022/05/22 11:33:42;;;;;;;4.87;4.40;;;30.40;41.10;;;;;;6141066;23;20414;-87
2022/05/22 11:36:58;;;;;;;8.13;4.97;;;30.20;40.40;;;;;;6099064;23;20443;-87
2022/05/22 11:40:51;;;;;;;6.40;4.80;;;29.10;42.20;;;;;;6086817;23;20559;-89
2022/05/22 11:44:41;;;;;;;;;;;;;;;;;;;;;
2022/05/22 11:56:04;;;;;;;6.30;4.60;;;28.80;41.50;;;;;;6025289;23;20493;-86
2022/05/22 12:03:47;;;;;;;;;;;;;;;;;;;;;
2022/05/22 12:06:38;;;;;;;4.97;3.50;;;27.70;42.20;;;;;;5949443;24;20412;-86
2022/05/22 12:17:54;;;;;;;;;;;;;;;;;;;;;
2022/05/22 12:22:24;;;;;;;;;;;;;;;;;;;;;
2022/05/22 12:26:07;;;;;;;3.23;2.50;;;28.70;36.20;;;;;;5994095;23;20421;-90
2022/05/22 12:29:13;;;;;;;4.20;2.40;;;28.00;36.00;;;;;;5986115;23;20581;-91
2022/05/22 12:32:22;;;;;;;5.07;2.80;;;29.10;35.60;;;;;;6021520;23;20414;-88
2022/05/22 12:34:55;;;;;;;3.90;3.43;;;28.80;35.90;;;;;;6015452;23;20513;-85
2022/05/22 12:38:00;;;;;;;;;;;;;;;;;;;;;
2022/05/22 12:45:36;;;;;;;4.87;4.00;;;28.90;37.50;;;;;;5871096;24;20432;-85
2022/05/22 12:52:01;;;;;;;3.57;3.27;;;28.90;37.90;;;;;;5951895;24;20404;-89
2022/05/22 12:54:34;;;;;;;3.90;3.57;;;28.90;37.60;;;;;;6013054;23;20890;-85
2022/05/22 12:57:59;;;;;;;;;;;;;;;;;;;;;
2022/05/22 13:01:38;;;;;;;3.70;2.77;;;28.40;37.20;;;;;;5982252;24;20360;-86
2022/05/22 13:09:39;;;;;;;5.23;3.27;;;28.40;37.50;;;;;;6025769;23;20465;-87
2022/05/22 13:17:18;;;;;;;3.33;3.03;;;28.30;37.00;;;;;;5820969;24;20436;-86
2022/05/22 13:20:39;;;;;;;3.13;2.53;;;28.60;37.30;;;;;;5822308;24;20416;-86
2022/05/22 13:23:33;;;;;;;3.40;2.57;;;29.00;36.60;;;;;;5866699;24;20497;-88
2022/05/22 13:26:53;;;;;;;4.10;2.60;;;29.20;36.30;;;;;;5904587;24;20591;-88
2022/05/22 13:33:35;;;;;;;3.93;2.60;;;29.10;34.40;;;;;;5895636;24;20407;-85
2022/05/22 13:41:20;;;;;;;3.93;3.10;;;28.40;34.40;;;;;;5840538;24;20404;-87
2022/05/22 13:47:53;;;;;;;3.67;2.53;;;27.60;33.60;;;;;;6092895;23;20542;-88
2022/05/22 13:54:24;;;;;;;3.70;2.50;;;26.90;36.10;;;;;;6135661;23;20518;-86
2022/05/22 13:58:08;;;;;;;6.50;3.27;;;27.10;36.70;;;;;;6114231;23;20460;-86
2022/05/22 14:01:07;;;;;;;3.30;2.73;;;27.50;35.90;;;;;;5962701;24;20410;-86
2022/05/22 14:04:40;;;;;;;3.40;2.77;;;27.40;36.00;;;;;;6097776;23;20400;-85
2022/05/22 14:08:06;;;;;;;2.97;2.50;;;27.60;35.00;;;;;;6011999;23;20503;-84
2022/05/22 14:11:39;;;;;;;4.70;3.17;;;27.70;35.20;;;;;;6006547;23;20467;-84
2022/05/22 14:14:33;;;;;;;5.80;2.30;;;28.10;35.10;;;;;;5999355;23;20481;-85
2022/05/22 14:17:58;;;;;;;2.70;2.20;;;28.10;35.10;;;;;;5996587;23;20447;-86
2022/05/22 14:21:09;;;;;;;5.40;3.53;;;27.80;35.30;;;;;;5936003;24;20418;-86
2022/05/22 14:28:32;;;;;;;6.00;3.43;;;27.30;37.10;;;;;;5933400;24;20490;-85
2022/05/22 14:43:39;;;;;;;4.23;3.10;;;26.50;38.50;;;;;;5876030;24;20399;-84
2022/05/22 14:58:20;;;;;;;3.00;2.10;;;26.50;35.90;;;;;;5889564;24;20435;-90
2022/05/22 15:01:48;;;;;;;3.57;2.27;;;26.60;34.10;;;;;;5867761;24;20468;-89
2022/05/22 15:05:02;;;;;;;3.07;2.67;;;26.50;32.80;;;;;;5923380;23;20428;-89
2022/05/22 15:07:29;;;;;;;2.87;2.20;;;26.20;34.10;;;;;;5981953;23;20477;-86
2022/05/22 15:14:29;;;;;;;4.17;2.73;;;26.40;35.10;;;;;;5995597;23;20533;-84
2022/05/22 15:21:36;;;;;;;4.67;2.80;;;26.60;36.30;;;;;;6058679;23;20468;-84
2022/05/22 15:28:09;;;;;;;;;;;;;;;;;;;;;
2022/05/22 15:32:13;;;;;;;;;;;;;;;;;;;;;
2022/05/22 15:35:29;;;;;;;2.60;2.40;;;25.90;37.80;;;;;;5892438;24;20398;-87
2022/05/22 15:42:03;;;;;;;2.83;2.60;;;26.30;38.50;;;;;;6065742;23;20417;-86
2022/05/22 15:45:06;;;;;;;4.47;2.80;;;26.30;39.10;;;;;;6026079;23;20432;-85
2022/05/22 15:52:05;;;;;;;;;;;;;;;;;;;;;
2022/05/22 15:55:08;;;;;;;3.07;2.70;;;26.60;38.20;;;;;;5982768;23;20451;-88
2022/05/22 15:57:37;;;;;;;4.97;2.73;;;26.40;38.10;;;;;;6030419;23;20538;-88
2022/05/22 16:09:19;;;;;;;4.77;2.30;;;26.10;38.00;;;;;;6146664;23;20482;-90
2022/05/22 16:12:56;;;;;;;3.40;2.50;;;26.10;37.50;;;;;;6148237;23;20492;-88
2022/05/22 16:16:13;;;;;;;;;;;;;;;;;;;;;
2022/05/22 16:30:57;;;;;;;4.63;2.30;;;26.40;37.70;;;;;;5901145;24;20407;-85
2022/05/22 16:40:30;;;;;;;3.97;2.70;;;26.40;35.90;;;;;;6127813;23;20448;-88
2022/05/22 16:43:49;;;;;;;2.17;1.97;;;26.40;36.80;;;;;;6107667;23;20718;-88
2022/05/22 16:53:01;;;;;;;2.13;1.90;;;26.40;37.40;;;;;;6122258;23;20408;-87
2022/05/22 16:53:31;;;;;;;1.63;1.53;;;26.20;37.00;;;;;;6002163;23;20418;-86
2022/05/22 16:56:19;;;;;;;1.70;1.60;;;26.20;35.80;;;;;;6009358;23;20423;-84
2022/05/22 16:59:04;;;;;;;2.80;2.10;;;26.10;36.30;;;;;;6010448;23;20419;-88
2022/05/22 17:01:42;;;;;;;2.13;1.80;;;25.90;37.40;;;;;;6026799;23;20399;-88
2022/05/22 17:04:30;;;;;;;2.30;1.80;;;25.90;37.80;;;;;;6004978;23;20443;-88
2022/05/22 17:07:28;;;;;;;3.27;1.97;;;25.70;38.50;;;;;;6087957;23;20467;-86
2022/05/22 17:10:47;;;;;;;2.63;2.23;;;26.00;38.60;;;;;;6071806;23;20474;-87
2022/05/22 17:13:44;;;;;;;2.20;1.80;;;26.10;38.90;;;;;;6105247;23;20419;-87
2022/05/22 17:16:51;;;;;;;2.20;1.70;;;26.40;38.80;;;;;;6107468;23;20420;-85
2022/05/22 17:19:50;;;;;;;2.00;1.80;;;26.30;38.60;;;;;;6103789;23;20906;-89
2022/05/22 17:23:04;;;;;;;3.40;2.17;;;26.10;38.80;;;;;;6063983;23;20462;-87
2022/05/22 17:25:47;;;;;;;2.70;1.80;;;25.90;39.70;;;;;;6114321;23;20415;-87
2022/05/22 17:28:14;;;;;;;2.40;2.00;;;26.00;40.40;;;;;;6107109;23;20439;-87
2022/05/22 17:30:42;;;;;;;2.60;1.80;;;25.90;40.40;;;;;;6128886;23;20487;-84
2022/05/22 17:33:11;;;;;;;4.20;2.17;;;25.80;40.60;;;;;;6104694;23;20385;-88
2022/05/22 17:36:24;;;;;;;3.83;2.10;;;25.70;40.90;;;;;;5991321;23;20419;-87
2022/05/22 17:43:10;;;;;;;2.13;1.93;;;25.70;41.30;;;;;;5979247;23;20430;-86
2022/05/22 17:46:15;;;;;;;3.53;1.70;;;25.70;41.90;;;;;;5989829;23;20486;-85
2022/05/22 17:49:41;;;;;;;6.10;1.90;;;25.70;41.20;;;;;;5984802;23;20465;-86
2022/05/22 17:52:39;;;;;;;2.70;2.13;;;25.70;41.60;;;;;;6009043;23;20420;-86
2022/05/22 17:55:09;;;;;;;2.67;1.77;;;25.70;41.30;;;;;;6009176;23;20404;-85
2022/05/22 17:58:13;;;;;;;4.57;1.57;;;25.70;41.10;;;;;;6007695;23;20468;-85
2022/05/22 18:01:10;;;;;;;;;;;;;;;;;;;;;
2022/05/22 18:03:46;;;;;;;3.67;1.80;;;25.30;40.80;;;;;;6123683;23;21009;-87
2022/05/22 18:06:14;;;;;;;1.73;1.43;;;25.40;41.00;;;;;;6103096;23;20432;-88
2022/05/22 18:08:41;;;;;;;1.67;1.53;;;25.30;40.20;;;;;;6122767;23;20447;-86
2022/05/22 18:17:00;;;;;;;2.50;1.80;;;25.20;41.00;;;;;;6122628;23;20492;-87
2022/05/22 18:19:32;;;;;;;2.40;1.90;;;25.20;41.20;;;;;;6117818;23;20478;-87
2022/05/22 18:22:12;;;;;;;2.07;1.97;;;25.20;41.90;;;;;;6098043;23;20797;-85
2022/05/22 18:27:56;;;;;;;3.80;1.93;;;25.20;43.90;;;;;;6122062;23;20435;-85
2022/05/22 18:30:25;;;;;;;2.07;1.83;;;24.90;44.50;;;;;;6096454;23;20392;-85
2022/05/22 18:32:59;;;;;;;2.00;1.53;;;25.10;44.60;;;;;;6095449;23;20749;-85
2022/05/22 18:35:44;;;;;;;2.73;2.53;;;25.00;45.20;;;;;;6097689;23;20431;-85
2022/05/22 18:38:23;;;;;;;2.70;1.50;;;24.80;45.10;;;;;;6119815;23;20392;-86
2022/05/22 18:40:50;;;;;;;2.00;1.60;;;24.80;45.40;;;;;;6097680;23;20384;-87
2022/05/22 18:43:17;;;;;;;3.00;2.10;;;24.70;46.00;;;;;;6123060;23;20422;-87
2022/05/22 18:45:52;;;;;;;4.70;2.10;;;24.70;46.60;;;;;;6095348;23;20503;-84
2022/05/22 18:48:59;;;;;;;6.10;2.10;;;24.70;46.10;;;;;;6100250;23;20444;-85
2022/05/22 18:51:29;;;;;;;3.70;2.20;;;24.70;46.40;;;;;;6123349;23;20434;-88
2022/05/22 18:54:03;;;;;;;1.97;1.83;;;24.50;46.80;;;;;;6100327;23;20486;-90
2022/05/22 18:56:39;;;;;;;3.37;2.00;;;24.60;47.50;;;;;;6103606;23;20459;-86
2022/05/22 18:59:12;;;;;;;4.67;2.13;;;24.60;47.50;;;;;;6124045;23;20507;-87
2022/05/22 19:01:42;;;;;;;3.97;2.27;;;24.50;47.80;;;;;;6123186;23;20400;-86
2022/05/22 19:04:15;;;;;;;3.33;2.30;;;24.30;48.10;;;;;;6123440;23;20412;-85